<?xml version="1.0" encoding="UTF-8" ?>
<gpx version="1.1" xmlns:xsi="http://www.w3.org/2001/XMLSchema-instance" 
    xmlns="http://www.topografix.com/GPX/1/1" 
    xsi:schemaLocation="http://www.topografix.com/GPX/1/1 http://www.topografix.com/GPX/1/1/gpx.xsd" 
    creator="Openrunner - https://www.openrunner.com" >	<trk>
						<name>Circuit de mincieux-21745273</name>
						<trkseg>
					<trkpt lat="45.578430" lon="4.662720">
						<ele>339</ele>
						<time>2025-06-25T07:33:31Z</time>
					</trkpt>
					<trkpt lat="45.578440" lon="4.662750">
						<ele>339</ele>
						<time>2025-06-25T07:33:34Z</time>
					</trkpt>
					<trkpt lat="45.578650" lon="4.663500">
						<ele>335</ele>
						<time>2025-06-25T07:34:50Z</time>
					</trkpt>
					<trkpt lat="45.578700" lon="4.663680">
						<ele>335</ele>
						<time>2025-06-25T07:35:08Z</time>
					</trkpt>
					<trkpt lat="45.578720" lon="4.663740">
						<ele>334</ele>
						<time>2025-06-25T07:35:14Z</time>
					</trkpt>
					<trkpt lat="45.578740" lon="4.663800">
						<ele>334</ele>
						<time>2025-06-25T07:35:20Z</time>
					</trkpt>
					<trkpt lat="45.578890" lon="4.664140">
						<ele>332</ele>
						<time>2025-06-25T07:35:58Z</time>
					</trkpt>
					<trkpt lat="45.578990" lon="4.664400">
						<ele>331</ele>
						<time>2025-06-25T07:36:25Z</time>
					</trkpt>
					<trkpt lat="45.579090" lon="4.664570">
						<ele>331</ele>
						<time>2025-06-25T07:36:46Z</time>
					</trkpt>
					<trkpt lat="45.579120" lon="4.664630">
						<ele>330</ele>
						<time>2025-06-25T07:36:53Z</time>
					</trkpt>
					<trkpt lat="45.579280" lon="4.664910">
						<ele>329</ele>
						<time>2025-06-25T07:37:27Z</time>
					</trkpt>
					<trkpt lat="45.579550" lon="4.665370">
						<ele>326</ele>
						<time>2025-06-25T07:38:23Z</time>
					</trkpt>
					<trkpt lat="45.579570" lon="4.665440">
						<ele>325</ele>
						<time>2025-06-25T07:38:30Z</time>
					</trkpt>
					<trkpt lat="45.579600" lon="4.665550">
						<ele>325</ele>
						<time>2025-06-25T07:38:41Z</time>
					</trkpt>
					<trkpt lat="45.579520" lon="4.665950">
						<ele>323</ele>
						<time>2025-06-25T07:39:20Z</time>
					</trkpt>
					<trkpt lat="45.579510" lon="4.666160">
						<ele>322</ele>
						<time>2025-06-25T07:39:39Z</time>
					</trkpt>
					<trkpt lat="45.579560" lon="4.666400">
						<ele>322</ele>
						<time>2025-06-25T07:40:03Z</time>
					</trkpt>
					<trkpt lat="45.579670" lon="4.666600">
						<ele>320</ele>
						<time>2025-06-25T07:40:27Z</time>
					</trkpt>
					<trkpt lat="45.579710" lon="4.666620">
						<ele>320</ele>
						<time>2025-06-25T07:40:32Z</time>
					</trkpt>
					<trkpt lat="45.579910" lon="4.667030">
						<ele>318</ele>
						<time>2025-06-25T07:41:19Z</time>
					</trkpt>
					<trkpt lat="45.580590" lon="4.667670">
						<ele>314</ele>
						<time>2025-06-25T07:43:08Z</time>
					</trkpt>
					<trkpt lat="45.580730" lon="4.667940">
						<ele>313</ele>
						<time>2025-06-25T07:43:39Z</time>
					</trkpt>
					<trkpt lat="45.580800" lon="4.668140">
						<ele>312</ele>
						<time>2025-06-25T07:44:00Z</time>
					</trkpt>
					<trkpt lat="45.580900" lon="4.668440">
						<ele>311</ele>
						<time>2025-06-25T07:44:31Z</time>
					</trkpt>
					<trkpt lat="45.580980" lon="4.668530">
						<ele>312</ele>
						<time>2025-06-25T07:44:44Z</time>
					</trkpt>
					<trkpt lat="45.581080" lon="4.668610">
						<ele>312</ele>
						<time>2025-06-25T07:45:00Z</time>
					</trkpt>
					<trkpt lat="45.581150" lon="4.668590">
						<ele>313</ele>
						<time>2025-06-25T07:45:09Z</time>
					</trkpt>
					<trkpt lat="45.581160" lon="4.668600">
						<ele>313</ele>
						<time>2025-06-25T07:45:11Z</time>
					</trkpt>
					<trkpt lat="45.581170" lon="4.668610">
						<ele>313</ele>
						<time>2025-06-25T07:45:12Z</time>
					</trkpt>
					<trkpt lat="45.581190" lon="4.668620">
						<ele>313</ele>
						<time>2025-06-25T07:45:15Z</time>
					</trkpt>
					<trkpt lat="45.581190" lon="4.668620">
						<ele>313</ele>
						<time>2025-06-25T07:45:15Z</time>
					</trkpt>
					<trkpt lat="45.581220" lon="4.668640">
						<ele>313</ele>
						<time>2025-06-25T07:45:20Z</time>
					</trkpt>
					<trkpt lat="45.581280" lon="4.668640">
						<ele>313</ele>
						<time>2025-06-25T07:45:28Z</time>
					</trkpt>
					<trkpt lat="45.581400" lon="4.668650">
						<ele>314</ele>
						<time>2025-06-25T07:45:44Z</time>
					</trkpt>
					<trkpt lat="45.581490" lon="4.668630">
						<ele>314</ele>
						<time>2025-06-25T07:45:56Z</time>
					</trkpt>
					<trkpt lat="45.581580" lon="4.668540">
						<ele>314</ele>
						<time>2025-06-25T07:46:11Z</time>
					</trkpt>
					<trkpt lat="45.581650" lon="4.668500">
						<ele>314</ele>
						<time>2025-06-25T07:46:21Z</time>
					</trkpt>
					<trkpt lat="45.581710" lon="4.668480">
						<ele>314</ele>
						<time>2025-06-25T07:46:29Z</time>
					</trkpt>
					<trkpt lat="45.581940" lon="4.668470">
						<ele>318</ele>
						<time>2025-06-25T07:47:00Z</time>
					</trkpt>
					<trkpt lat="45.582070" lon="4.668450">
						<ele>320</ele>
						<time>2025-06-25T07:47:17Z</time>
					</trkpt>
					<trkpt lat="45.582140" lon="4.668450">
						<ele>321</ele>
						<time>2025-06-25T07:47:26Z</time>
					</trkpt>
					<trkpt lat="45.582200" lon="4.668460">
						<ele>322</ele>
						<time>2025-06-25T07:47:34Z</time>
					</trkpt>
					<trkpt lat="45.582840" lon="4.669120">
						<ele>338</ele>
						<time>2025-06-25T07:49:20Z</time>
					</trkpt>
					<trkpt lat="45.583010" lon="4.669210">
						<ele>340</ele>
						<time>2025-06-25T07:49:44Z</time>
					</trkpt>
					<trkpt lat="45.583270" lon="4.669320">
						<ele>343</ele>
						<time>2025-06-25T07:50:20Z</time>
					</trkpt>
					<trkpt lat="45.583680" lon="4.669440">
						<ele>346</ele>
						<time>2025-06-25T07:51:16Z</time>
					</trkpt>
					<trkpt lat="45.583730" lon="4.669450">
						<ele>346</ele>
						<time>2025-06-25T07:51:23Z</time>
					</trkpt>
					<trkpt lat="45.583880" lon="4.669560">
						<ele>346</ele>
						<time>2025-06-25T07:51:45Z</time>
					</trkpt>
					<trkpt lat="45.583930" lon="4.669610">
						<ele>347</ele>
						<time>2025-06-25T07:51:53Z</time>
					</trkpt>
					<trkpt lat="45.583890" lon="4.669660">
						<ele>346</ele>
						<time>2025-06-25T07:52:00Z</time>
					</trkpt>
					<trkpt lat="45.583870" lon="4.669720">
						<ele>346</ele>
						<time>2025-06-25T07:52:07Z</time>
					</trkpt>
					<trkpt lat="45.583750" lon="4.670870">
						<ele>343</ele>
						<time>2025-06-25T07:53:55Z</time>
					</trkpt>
					<trkpt lat="45.583750" lon="4.670950">
						<ele>343</ele>
						<time>2025-06-25T07:54:03Z</time>
					</trkpt>
					<trkpt lat="45.583790" lon="4.671110">
						<ele>343</ele>
						<time>2025-06-25T07:54:19Z</time>
					</trkpt>
					<trkpt lat="45.583910" lon="4.671400">
						<ele>342</ele>
						<time>2025-06-25T07:54:50Z</time>
					</trkpt>
					<trkpt lat="45.584000" lon="4.671550">
						<ele>342</ele>
						<time>2025-06-25T07:55:09Z</time>
					</trkpt>
					<trkpt lat="45.584300" lon="4.672050">
						<ele>341</ele>
						<time>2025-06-25T07:56:10Z</time>
					</trkpt>
					<trkpt lat="45.584310" lon="4.672100">
						<ele>341</ele>
						<time>2025-06-25T07:56:15Z</time>
					</trkpt>
					<trkpt lat="45.584300" lon="4.672050">
						<ele>341</ele>
						<time>2025-06-25T07:56:20Z</time>
					</trkpt>
					<trkpt lat="45.584210" lon="4.672190">
						<ele>341</ele>
						<time>2025-06-25T07:56:37Z</time>
					</trkpt>
					<trkpt lat="45.583990" lon="4.672610">
						<ele>339</ele>
						<time>2025-06-25T07:57:26Z</time>
					</trkpt>
					<trkpt lat="45.583870" lon="4.672740">
						<ele>338</ele>
						<time>2025-06-25T07:57:47Z</time>
					</trkpt>
					<trkpt lat="45.583700" lon="4.672880">
						<ele>337</ele>
						<time>2025-06-25T07:58:13Z</time>
					</trkpt>
					<trkpt lat="45.583570" lon="4.672960">
						<ele>337</ele>
						<time>2025-06-25T07:58:32Z</time>
					</trkpt>
					<trkpt lat="45.583460" lon="4.673010">
						<ele>336</ele>
						<time>2025-06-25T07:58:47Z</time>
					</trkpt>
					<trkpt lat="45.583340" lon="4.673040">
						<ele>336</ele>
						<time>2025-06-25T07:59:03Z</time>
					</trkpt>
					<trkpt lat="45.583260" lon="4.673040">
						<ele>336</ele>
						<time>2025-06-25T07:59:14Z</time>
					</trkpt>
					<trkpt lat="45.583040" lon="4.673030">
						<ele>334</ele>
						<time>2025-06-25T07:59:43Z</time>
					</trkpt>
					<trkpt lat="45.583000" lon="4.673040">
						<ele>334</ele>
						<time>2025-06-25T07:59:49Z</time>
					</trkpt>
					<trkpt lat="45.582980" lon="4.673060">
						<ele>334</ele>
						<time>2025-06-25T07:59:52Z</time>
					</trkpt>
					<trkpt lat="45.582940" lon="4.673090">
						<ele>334</ele>
						<time>2025-06-25T07:59:58Z</time>
					</trkpt>
					<trkpt lat="45.582870" lon="4.673170">
						<ele>333</ele>
						<time>2025-06-25T08:00:10Z</time>
					</trkpt>
					<trkpt lat="45.582350" lon="4.674170">
						<ele>329</ele>
						<time>2025-06-25T08:02:06Z</time>
					</trkpt>
					<trkpt lat="45.582340" lon="4.674190">
						<ele>329</ele>
						<time>2025-06-25T08:02:09Z</time>
					</trkpt>
					<trkpt lat="45.582210" lon="4.674260">
						<ele>328</ele>
						<time>2025-06-25T08:02:27Z</time>
					</trkpt>
					<trkpt lat="45.581940" lon="4.674470">
						<ele>326</ele>
						<time>2025-06-25T08:03:08Z</time>
					</trkpt>
					<trkpt lat="45.581780" lon="4.674630">
						<ele>325</ele>
						<time>2025-06-25T08:03:34Z</time>
					</trkpt>
					<trkpt lat="45.581100" lon="4.675370">
						<ele>322</ele>
						<time>2025-06-25T08:05:28Z</time>
					</trkpt>
					<trkpt lat="45.580640" lon="4.675840">
						<ele>320</ele>
						<time>2025-06-25T08:06:44Z</time>
					</trkpt>
					<trkpt lat="45.580330" lon="4.676250">
						<ele>318</ele>
						<time>2025-06-25T08:07:40Z</time>
					</trkpt>
					<trkpt lat="45.579680" lon="4.676930">
						<ele>314</ele>
						<time>2025-06-25T08:09:28Z</time>
					</trkpt>
					<trkpt lat="45.579530" lon="4.677140">
						<ele>313</ele>
						<time>2025-06-25T08:09:56Z</time>
					</trkpt>
					<trkpt lat="45.579370" lon="4.677500">
						<ele>313</ele>
						<time>2025-06-25T08:10:36Z</time>
					</trkpt>
					<trkpt lat="45.579240" lon="4.677750">
						<ele>313</ele>
						<time>2025-06-25T08:11:05Z</time>
					</trkpt>
					<trkpt lat="45.578790" lon="4.678460">
						<ele>310</ele>
						<time>2025-06-25T08:12:34Z</time>
					</trkpt>
					<trkpt lat="45.578680" lon="4.678660">
						<ele>309</ele>
						<time>2025-06-25T08:12:58Z</time>
					</trkpt>
					<trkpt lat="45.578660" lon="4.678690">
						<ele>309</ele>
						<time>2025-06-25T08:13:02Z</time>
					</trkpt>
					<trkpt lat="45.578620" lon="4.678410">
						<ele>307</ele>
						<time>2025-06-25T08:13:28Z</time>
					</trkpt>
					<trkpt lat="45.578620" lon="4.678360">
						<ele>307</ele>
						<time>2025-06-25T08:13:33Z</time>
					</trkpt>
					<trkpt lat="45.578640" lon="4.678200">
						<ele>306</ele>
						<time>2025-06-25T08:13:48Z</time>
					</trkpt>
					<trkpt lat="45.578710" lon="4.677820">
						<ele>305</ele>
						<time>2025-06-25T08:14:25Z</time>
					</trkpt>
					<trkpt lat="45.578790" lon="4.677470">
						<ele>304</ele>
						<time>2025-06-25T08:14:59Z</time>
					</trkpt>
					<trkpt lat="45.578820" lon="4.677390">
						<ele>304</ele>
						<time>2025-06-25T08:15:08Z</time>
					</trkpt>
					<trkpt lat="45.578830" lon="4.677240">
						<ele>304</ele>
						<time>2025-06-25T08:15:22Z</time>
					</trkpt>
					<trkpt lat="45.578830" lon="4.676880">
						<ele>302</ele>
						<time>2025-06-25T08:15:56Z</time>
					</trkpt>
					<trkpt lat="45.578830" lon="4.676750">
						<ele>301</ele>
						<time>2025-06-25T08:16:08Z</time>
					</trkpt>
					<trkpt lat="45.578940" lon="4.676560">
						<ele>301</ele>
						<time>2025-06-25T08:16:31Z</time>
					</trkpt>
					<trkpt lat="45.579090" lon="4.676380">
						<ele>302</ele>
						<time>2025-06-25T08:16:57Z</time>
					</trkpt>
					<trkpt lat="45.579140" lon="4.676260">
						<ele>301</ele>
						<time>2025-06-25T08:17:10Z</time>
					</trkpt>
					<trkpt lat="45.579160" lon="4.676170">
						<ele>300</ele>
						<time>2025-06-25T08:17:19Z</time>
					</trkpt>
					<trkpt lat="45.579110" lon="4.676020">
						<ele>299</ele>
						<time>2025-06-25T08:17:34Z</time>
					</trkpt>
					<trkpt lat="45.579030" lon="4.675820">
						<ele>299</ele>
						<time>2025-06-25T08:17:56Z</time>
					</trkpt>
					<trkpt lat="45.579010" lon="4.675790">
						<ele>299</ele>
						<time>2025-06-25T08:18:00Z</time>
					</trkpt>
					<trkpt lat="45.578990" lon="4.675750">
						<ele>299</ele>
						<time>2025-06-25T08:18:04Z</time>
					</trkpt>
					<trkpt lat="45.578980" lon="4.675740">
						<ele>299</ele>
						<time>2025-06-25T08:18:06Z</time>
					</trkpt>
					<trkpt lat="45.578960" lon="4.675750">
						<ele>299</ele>
						<time>2025-06-25T08:18:09Z</time>
					</trkpt>
					<trkpt lat="45.578880" lon="4.675730">
						<ele>299</ele>
						<time>2025-06-25T08:18:20Z</time>
					</trkpt>
					<trkpt lat="45.578820" lon="4.675790">
						<ele>299</ele>
						<time>2025-06-25T08:18:29Z</time>
					</trkpt>
					<trkpt lat="45.578730" lon="4.675940">
						<ele>300</ele>
						<time>2025-06-25T08:18:48Z</time>
					</trkpt>
					<trkpt lat="45.578640" lon="4.676020">
						<ele>300</ele>
						<time>2025-06-25T08:19:02Z</time>
					</trkpt>
					<trkpt lat="45.578530" lon="4.676040">
						<ele>300</ele>
						<time>2025-06-25T08:19:17Z</time>
					</trkpt>
					<trkpt lat="45.578400" lon="4.676070">
						<ele>300</ele>
						<time>2025-06-25T08:19:34Z</time>
					</trkpt>
					<trkpt lat="45.578290" lon="4.676120">
						<ele>300</ele>
						<time>2025-06-25T08:19:50Z</time>
					</trkpt>
					<trkpt lat="45.578140" lon="4.676230">
						<ele>300</ele>
						<time>2025-06-25T08:20:12Z</time>
					</trkpt>
					<trkpt lat="45.578000" lon="4.676350">
						<ele>300</ele>
						<time>2025-06-25T08:20:34Z</time>
					</trkpt>
					<trkpt lat="45.577760" lon="4.676500">
						<ele>301</ele>
						<time>2025-06-25T08:21:09Z</time>
					</trkpt>
					<trkpt lat="45.577420" lon="4.676690">
						<ele>303</ele>
						<time>2025-06-25T08:21:58Z</time>
					</trkpt>
					<trkpt lat="45.577250" lon="4.676930">
						<ele>303</ele>
						<time>2025-06-25T08:22:30Z</time>
					</trkpt>
					<trkpt lat="45.577180" lon="4.676980">
						<ele>303</ele>
						<time>2025-06-25T08:22:40Z</time>
					</trkpt>
					<trkpt lat="45.577060" lon="4.676970">
						<ele>303</ele>
						<time>2025-06-25T08:22:56Z</time>
					</trkpt>
					<trkpt lat="45.576930" lon="4.676840">
						<ele>305</ele>
						<time>2025-06-25T08:23:17Z</time>
					</trkpt>
					<trkpt lat="45.576690" lon="4.676820">
						<ele>306</ele>
						<time>2025-06-25T08:23:49Z</time>
					</trkpt>
					<trkpt lat="45.576190" lon="4.676800">
						<ele>307</ele>
						<time>2025-06-25T08:24:56Z</time>
					</trkpt>
					<trkpt lat="45.575540" lon="4.676830">
						<ele>309</ele>
						<time>2025-06-25T08:26:23Z</time>
					</trkpt>
					<trkpt lat="45.575300" lon="4.676830">
						<ele>310</ele>
						<time>2025-06-25T08:26:55Z</time>
					</trkpt>
					<trkpt lat="45.574970" lon="4.676800">
						<ele>311</ele>
						<time>2025-06-25T08:27:39Z</time>
					</trkpt>
					<trkpt lat="45.574790" lon="4.676800">
						<ele>312</ele>
						<time>2025-06-25T08:28:03Z</time>
					</trkpt>
					<trkpt lat="45.573960" lon="4.677250">
						<ele>313</ele>
						<time>2025-06-25T08:30:01Z</time>
					</trkpt>
					<trkpt lat="45.573850" lon="4.677400">
						<ele>313</ele>
						<time>2025-06-25T08:30:22Z</time>
					</trkpt>
					<trkpt lat="45.573730" lon="4.677650">
						<ele>312</ele>
						<time>2025-06-25T08:30:50Z</time>
					</trkpt>
					<trkpt lat="45.573660" lon="4.677900">
						<ele>311</ele>
						<time>2025-06-25T08:31:15Z</time>
					</trkpt>
					<trkpt lat="45.573590" lon="4.678090">
						<ele>310</ele>
						<time>2025-06-25T08:31:35Z</time>
					</trkpt>
					<trkpt lat="45.573400" lon="4.678280">
						<ele>310</ele>
						<time>2025-06-25T08:32:06Z</time>
					</trkpt>
					<trkpt lat="45.573050" lon="4.678370">
						<ele>311</ele>
						<time>2025-06-25T08:32:54Z</time>
					</trkpt>
					<trkpt lat="45.572850" lon="4.678480">
						<ele>312</ele>
						<time>2025-06-25T08:33:22Z</time>
					</trkpt>
					<trkpt lat="45.572620" lon="4.678690">
						<ele>313</ele>
						<time>2025-06-25T08:33:59Z</time>
					</trkpt>
					<trkpt lat="45.572510" lon="4.678850">
						<ele>313</ele>
						<time>2025-06-25T08:34:20Z</time>
					</trkpt>
					<trkpt lat="45.572440" lon="4.679000">
						<ele>313</ele>
						<time>2025-06-25T08:34:36Z</time>
					</trkpt>
					<trkpt lat="45.572390" lon="4.679180">
						<ele>312</ele>
						<time>2025-06-25T08:34:55Z</time>
					</trkpt>
					<trkpt lat="45.572330" lon="4.679300">
						<ele>312</ele>
						<time>2025-06-25T08:35:08Z</time>
					</trkpt>
					<trkpt lat="45.572060" lon="4.679900">
						<ele>311</ele>
						<time>2025-06-25T08:36:15Z</time>
					</trkpt>
					<trkpt lat="45.572010" lon="4.679970">
						<ele>311</ele>
						<time>2025-06-25T08:36:24Z</time>
					</trkpt>
					<trkpt lat="45.571960" lon="4.680010">
						<ele>311</ele>
						<time>2025-06-25T08:36:32Z</time>
					</trkpt>
					<trkpt lat="45.571940" lon="4.680040">
						<ele>311</ele>
						<time>2025-06-25T08:36:36Z</time>
					</trkpt>
					<trkpt lat="45.571540" lon="4.680280">
						<ele>311</ele>
						<time>2025-06-25T08:37:34Z</time>
					</trkpt>
					<trkpt lat="45.571430" lon="4.680340">
						<ele>311</ele>
						<time>2025-06-25T08:37:49Z</time>
					</trkpt>
					<trkpt lat="45.571130" lon="4.680460">
						<ele>312</ele>
						<time>2025-06-25T08:38:31Z</time>
					</trkpt>
					<trkpt lat="45.570920" lon="4.680500">
						<ele>312</ele>
						<time>2025-06-25T08:38:59Z</time>
					</trkpt>
					<trkpt lat="45.570840" lon="4.680480">
						<ele>312</ele>
						<time>2025-06-25T08:39:10Z</time>
					</trkpt>
					<trkpt lat="45.570780" lon="4.680430">
						<ele>312</ele>
						<time>2025-06-25T08:39:19Z</time>
					</trkpt>
					<trkpt lat="45.570700" lon="4.680300">
						<ele>312</ele>
						<time>2025-06-25T08:39:36Z</time>
					</trkpt>
					<trkpt lat="45.570680" lon="4.680300">
						<ele>312</ele>
						<time>2025-06-25T08:39:38Z</time>
					</trkpt>
					<trkpt lat="45.570570" lon="4.680340">
						<ele>312</ele>
						<time>2025-06-25T08:39:53Z</time>
					</trkpt>
					<trkpt lat="45.570270" lon="4.680090">
						<ele>312</ele>
						<time>2025-06-25T08:40:40Z</time>
					</trkpt>
					<trkpt lat="45.570040" lon="4.679900">
						<ele>312</ele>
						<time>2025-06-25T08:41:15Z</time>
					</trkpt>
					<trkpt lat="45.569840" lon="4.679700">
						<ele>313</ele>
						<time>2025-06-25T08:41:48Z</time>
					</trkpt>
					<trkpt lat="45.569650" lon="4.679480">
						<ele>313</ele>
						<time>2025-06-25T08:42:20Z</time>
					</trkpt>
					<trkpt lat="45.569470" lon="4.679230">
						<ele>314</ele>
						<time>2025-06-25T08:42:54Z</time>
					</trkpt>
					<trkpt lat="45.569430" lon="4.679130">
						<ele>314</ele>
						<time>2025-06-25T08:43:05Z</time>
					</trkpt>
					<trkpt lat="45.569390" lon="4.679080">
						<ele>314</ele>
						<time>2025-06-25T08:43:12Z</time>
					</trkpt>
					<trkpt lat="45.569340" lon="4.679050">
						<ele>314</ele>
						<time>2025-06-25T08:43:19Z</time>
					</trkpt>
					<trkpt lat="45.569160" lon="4.679010">
						<ele>314</ele>
						<time>2025-06-25T08:43:43Z</time>
					</trkpt>
					<trkpt lat="45.569080" lon="4.679010">
						<ele>314</ele>
						<time>2025-06-25T08:43:54Z</time>
					</trkpt>
					<trkpt lat="45.568980" lon="4.679050">
						<ele>314</ele>
						<time>2025-06-25T08:44:08Z</time>
					</trkpt>
					<trkpt lat="45.568790" lon="4.679180">
						<ele>314</ele>
						<time>2025-06-25T08:44:36Z</time>
					</trkpt>
					<trkpt lat="45.568710" lon="4.679250">
						<ele>313</ele>
						<time>2025-06-25T08:44:48Z</time>
					</trkpt>
					<trkpt lat="45.568560" lon="4.679310">
						<ele>313</ele>
						<time>2025-06-25T08:45:09Z</time>
					</trkpt>
					<trkpt lat="45.568240" lon="4.679210">
						<ele>313</ele>
						<time>2025-06-25T08:45:53Z</time>
					</trkpt>
					<trkpt lat="45.568230" lon="4.679230">
						<ele>313</ele>
						<time>2025-06-25T08:45:55Z</time>
					</trkpt>
					<trkpt lat="45.568240" lon="4.679210">
						<ele>313</ele>
						<time>2025-06-25T08:45:58Z</time>
					</trkpt>
					<trkpt lat="45.568330" lon="4.678650">
						<ele>312</ele>
						<time>2025-06-25T08:46:51Z</time>
					</trkpt>
					<trkpt lat="45.568360" lon="4.678530">
						<ele>312</ele>
						<time>2025-06-25T08:47:03Z</time>
					</trkpt>
					<trkpt lat="45.568450" lon="4.678310">
						<ele>312</ele>
						<time>2025-06-25T08:47:27Z</time>
					</trkpt>
					<trkpt lat="45.568590" lon="4.678050">
						<ele>312</ele>
						<time>2025-06-25T08:47:58Z</time>
					</trkpt>
					<trkpt lat="45.569040" lon="4.676820">
						<ele>317</ele>
						<time>2025-06-25T08:50:07Z</time>
					</trkpt>
					<trkpt lat="45.569060" lon="4.676780">
						<ele>318</ele>
						<time>2025-06-25T08:50:12Z</time>
					</trkpt>
					<trkpt lat="45.569000" lon="4.676630">
						<ele>317</ele>
						<time>2025-06-25T08:50:28Z</time>
					</trkpt>
					<trkpt lat="45.568940" lon="4.676230">
						<ele>318</ele>
						<time>2025-06-25T08:51:06Z</time>
					</trkpt>
					<trkpt lat="45.568890" lon="4.675810">
						<ele>320</ele>
						<time>2025-06-25T08:51:46Z</time>
					</trkpt>
					<trkpt lat="45.568880" lon="4.675460">
						<ele>319</ele>
						<time>2025-06-25T08:52:19Z</time>
					</trkpt>
					<trkpt lat="45.568890" lon="4.675310">
						<ele>319</ele>
						<time>2025-06-25T08:52:33Z</time>
					</trkpt>
					<trkpt lat="45.568940" lon="4.675080">
						<ele>319</ele>
						<time>2025-06-25T08:52:55Z</time>
					</trkpt>
					<trkpt lat="45.569020" lon="4.674830">
						<ele>320</ele>
						<time>2025-06-25T08:53:21Z</time>
					</trkpt>
					<trkpt lat="45.569110" lon="4.674640">
						<ele>321</ele>
						<time>2025-06-25T08:53:42Z</time>
					</trkpt>
					<trkpt lat="45.569210" lon="4.674480">
						<ele>321</ele>
						<time>2025-06-25T08:54:02Z</time>
					</trkpt>
					<trkpt lat="45.569790" lon="4.673350">
						<ele>323</ele>
						<time>2025-06-25T08:56:13Z</time>
					</trkpt>
					<trkpt lat="45.570120" lon="4.672720">
						<ele>324</ele>
						<time>2025-06-25T08:57:27Z</time>
					</trkpt>
					<trkpt lat="45.570500" lon="4.671760">
						<ele>325</ele>
						<time>2025-06-25T08:59:10Z</time>
					</trkpt>
					<trkpt lat="45.570510" lon="4.671690">
						<ele>325</ele>
						<time>2025-06-25T08:59:17Z</time>
					</trkpt>
					<trkpt lat="45.570450" lon="4.671050">
						<ele>320</ele>
						<time>2025-06-25T09:00:17Z</time>
					</trkpt>
					<trkpt lat="45.570360" lon="4.670920">
						<ele>317</ele>
						<time>2025-06-25T09:00:34Z</time>
					</trkpt>
					<trkpt lat="45.570250" lon="4.670700">
						<ele>314</ele>
						<time>2025-06-25T09:00:59Z</time>
					</trkpt>
					<trkpt lat="45.570210" lon="4.670530">
						<ele>312</ele>
						<time>2025-06-25T09:01:16Z</time>
					</trkpt>
					<trkpt lat="45.570220" lon="4.670400">
						<ele>312</ele>
						<time>2025-06-25T09:01:28Z</time>
					</trkpt>
					<trkpt lat="45.570230" lon="4.670330">
						<ele>311</ele>
						<time>2025-06-25T09:01:35Z</time>
					</trkpt>
					<trkpt lat="45.570290" lon="4.670170">
						<ele>311</ele>
						<time>2025-06-25T09:01:52Z</time>
					</trkpt>
					<trkpt lat="45.570360" lon="4.670050">
						<ele>312</ele>
						<time>2025-06-25T09:02:06Z</time>
					</trkpt>
					<trkpt lat="45.570450" lon="4.669810">
						<ele>312</ele>
						<time>2025-06-25T09:02:32Z</time>
					</trkpt>
					<trkpt lat="45.570480" lon="4.669410">
						<ele>312</ele>
						<time>2025-06-25T09:03:09Z</time>
					</trkpt>
					<trkpt lat="45.570450" lon="4.669210">
						<ele>312</ele>
						<time>2025-06-25T09:03:29Z</time>
					</trkpt>
					<trkpt lat="45.570430" lon="4.669210">
						<ele>312</ele>
						<time>2025-06-25T09:03:31Z</time>
					</trkpt>
					<trkpt lat="45.570370" lon="4.669190">
						<ele>311</ele>
						<time>2025-06-25T09:03:39Z</time>
					</trkpt>
					<trkpt lat="45.570040" lon="4.669310">
						<ele>310</ele>
						<time>2025-06-25T09:04:25Z</time>
					</trkpt>
					<trkpt lat="45.569900" lon="4.669280">
						<ele>310</ele>
						<time>2025-06-25T09:04:44Z</time>
					</trkpt>
					<trkpt lat="45.569710" lon="4.669090">
						<ele>312</ele>
						<time>2025-06-25T09:05:15Z</time>
					</trkpt>
					<trkpt lat="45.569480" lon="4.668780">
						<ele>315</ele>
						<time>2025-06-25T09:05:57Z</time>
					</trkpt>
					<trkpt lat="45.569050" lon="4.668030">
						<ele>320</ele>
						<time>2025-06-25T09:07:27Z</time>
					</trkpt>
					<trkpt lat="45.568660" lon="4.667060">
						<ele>324</ele>
						<time>2025-06-25T09:09:12Z</time>
					</trkpt>
					<trkpt lat="45.568650" lon="4.667070">
						<ele>324</ele>
						<time>2025-06-25T09:09:14Z</time>
					</trkpt>
					<trkpt lat="45.568660" lon="4.667060">
						<ele>324</ele>
						<time>2025-06-25T09:09:15Z</time>
					</trkpt>
					<trkpt lat="45.568910" lon="4.666670">
						<ele>325</ele>
						<time>2025-06-25T09:10:05Z</time>
					</trkpt>
					<trkpt lat="45.569220" lon="4.665830">
						<ele>326</ele>
						<time>2025-06-25T09:11:33Z</time>
					</trkpt>
					<trkpt lat="45.569420" lon="4.665540">
						<ele>327</ele>
						<time>2025-06-25T09:12:11Z</time>
					</trkpt>
					<trkpt lat="45.569610" lon="4.665270">
						<ele>329</ele>
						<time>2025-06-25T09:12:47Z</time>
					</trkpt>
					<trkpt lat="45.569510" lon="4.665280">
						<ele>329</ele>
						<time>2025-06-25T09:13:00Z</time>
					</trkpt>
					<trkpt lat="45.569100" lon="4.665120">
						<ele>330</ele>
						<time>2025-06-25T09:13:57Z</time>
					</trkpt>
					<trkpt lat="45.568940" lon="4.665140">
						<ele>330</ele>
						<time>2025-06-25T09:14:19Z</time>
					</trkpt>
					<trkpt lat="45.568700" lon="4.665250">
						<ele>330</ele>
						<time>2025-06-25T09:14:52Z</time>
					</trkpt>
					<trkpt lat="45.567970" lon="4.665710">
						<ele>327</ele>
						<time>2025-06-25T09:16:39Z</time>
					</trkpt>
					<trkpt lat="45.567910" lon="4.665730">
						<ele>327</ele>
						<time>2025-06-25T09:16:47Z</time>
					</trkpt>
					<trkpt lat="45.567540" lon="4.665710">
						<ele>327</ele>
						<time>2025-06-25T09:17:36Z</time>
					</trkpt>
					<trkpt lat="45.567300" lon="4.665650">
						<ele>327</ele>
						<time>2025-06-25T09:18:09Z</time>
					</trkpt>
					<trkpt lat="45.567090" lon="4.665560">
						<ele>326</ele>
						<time>2025-06-25T09:18:38Z</time>
					</trkpt>
					<trkpt lat="45.566940" lon="4.665480">
						<ele>326</ele>
						<time>2025-06-25T09:19:00Z</time>
					</trkpt>
					<trkpt lat="45.566530" lon="4.665160">
						<ele>325</ele>
						<time>2025-06-25T09:20:02Z</time>
					</trkpt>
					<trkpt lat="45.566180" lon="4.665150">
						<ele>323</ele>
						<time>2025-06-25T09:20:49Z</time>
					</trkpt>
					<trkpt lat="45.565780" lon="4.665190">
						<ele>321</ele>
						<time>2025-06-25T09:21:42Z</time>
					</trkpt>
					<trkpt lat="45.565530" lon="4.665210">
						<ele>321</ele>
						<time>2025-06-25T09:22:16Z</time>
					</trkpt>
					<trkpt lat="45.565300" lon="4.665140">
						<ele>320</ele>
						<time>2025-06-25T09:22:47Z</time>
					</trkpt>
					<trkpt lat="45.565120" lon="4.665070">
						<ele>321</ele>
						<time>2025-06-25T09:23:12Z</time>
					</trkpt>
					<trkpt lat="45.564920" lon="4.664970">
						<ele>321</ele>
						<time>2025-06-25T09:23:40Z</time>
					</trkpt>
					<trkpt lat="45.564560" lon="4.664610">
						<ele>322</ele>
						<time>2025-06-25T09:24:39Z</time>
					</trkpt>
					<trkpt lat="45.564470" lon="4.664500">
						<ele>322</ele>
						<time>2025-06-25T09:24:55Z</time>
					</trkpt>
					<trkpt lat="45.564450" lon="4.664460">
						<ele>322</ele>
						<time>2025-06-25T09:24:59Z</time>
					</trkpt>
					<trkpt lat="45.564680" lon="4.664060">
						<ele>324</ele>
						<time>2025-06-25T09:25:47Z</time>
					</trkpt>
					<trkpt lat="45.565430" lon="4.663030">
						<ele>327</ele>
						<time>2025-06-25T09:28:06Z</time>
					</trkpt>
					<trkpt lat="45.565740" lon="4.662500">
						<ele>329</ele>
						<time>2025-06-25T09:29:11Z</time>
					</trkpt>
					<trkpt lat="45.565880" lon="4.662210">
						<ele>330</ele>
						<time>2025-06-25T09:29:44Z</time>
					</trkpt>
					<trkpt lat="45.565950" lon="4.662070">
						<ele>330</ele>
						<time>2025-06-25T09:30:00Z</time>
					</trkpt>
					<trkpt lat="45.566550" lon="4.661260">
						<ele>333</ele>
						<time>2025-06-25T09:31:50Z</time>
					</trkpt>
					<trkpt lat="45.567360" lon="4.660440">
						<ele>337</ele>
						<time>2025-06-25T09:34:02Z</time>
					</trkpt>
					<trkpt lat="45.567870" lon="4.660130">
						<ele>338</ele>
						<time>2025-06-25T09:35:16Z</time>
					</trkpt>
					<trkpt lat="45.568230" lon="4.660050">
						<ele>338</ele>
						<time>2025-06-25T09:36:05Z</time>
					</trkpt>
					<trkpt lat="45.568540" lon="4.659810">
						<ele>339</ele>
						<time>2025-06-25T09:36:52Z</time>
					</trkpt>
					<trkpt lat="45.568950" lon="4.659430">
						<ele>340</ele>
						<time>2025-06-25T09:37:57Z</time>
					</trkpt>
					<trkpt lat="45.569490" lon="4.659080">
						<ele>341</ele>
						<time>2025-06-25T09:39:16Z</time>
					</trkpt>
					<trkpt lat="45.570140" lon="4.658640">
						<ele>341</ele>
						<time>2025-06-25T09:40:52Z</time>
					</trkpt>
					<trkpt lat="45.570680" lon="4.658320">
						<ele>341</ele>
						<time>2025-06-25T09:42:10Z</time>
					</trkpt>
					<trkpt lat="45.570990" lon="4.658160">
						<ele>342</ele>
						<time>2025-06-25T09:42:54Z</time>
					</trkpt>
					<trkpt lat="45.571130" lon="4.658130">
						<ele>342</ele>
						<time>2025-06-25T09:43:13Z</time>
					</trkpt>
					<trkpt lat="45.571150" lon="4.658030">
						<ele>343</ele>
						<time>2025-06-25T09:43:23Z</time>
					</trkpt>
					<trkpt lat="45.571130" lon="4.658130">
						<ele>342</ele>
						<time>2025-06-25T09:43:33Z</time>
					</trkpt>
					<trkpt lat="45.571280" lon="4.658180">
						<ele>342</ele>
						<time>2025-06-25T09:43:53Z</time>
					</trkpt>
					<trkpt lat="45.572070" lon="4.658490">
						<ele>341</ele>
						<time>2025-06-25T09:45:43Z</time>
					</trkpt>
					<trkpt lat="45.572470" lon="4.658660">
						<ele>340</ele>
						<time>2025-06-25T09:46:38Z</time>
					</trkpt>
					<trkpt lat="45.572700" lon="4.658780">
						<ele>341</ele>
						<time>2025-06-25T09:47:11Z</time>
					</trkpt>
					<trkpt lat="45.573120" lon="4.659130">
						<ele>341</ele>
						<time>2025-06-25T09:48:16Z</time>
					</trkpt>
					<trkpt lat="45.573480" lon="4.659400">
						<ele>342</ele>
						<time>2025-06-25T09:49:10Z</time>
					</trkpt>
					<trkpt lat="45.573550" lon="4.659420">
						<ele>342</ele>
						<time>2025-06-25T09:49:20Z</time>
					</trkpt>
					<trkpt lat="45.573890" lon="4.659410">
						<ele>343</ele>
						<time>2025-06-25T09:50:05Z</time>
					</trkpt>
					<trkpt lat="45.574050" lon="4.659340">
						<ele>344</ele>
						<time>2025-06-25T09:50:27Z</time>
					</trkpt>
					<trkpt lat="45.574730" lon="4.659120">
						<ele>346</ele>
						<time>2025-06-25T09:52:00Z</time>
					</trkpt>
					<trkpt lat="45.575420" lon="4.658880">
						<ele>348</ele>
						<time>2025-06-25T09:53:35Z</time>
					</trkpt>
					<trkpt lat="45.575480" lon="4.658880">
						<ele>348</ele>
						<time>2025-06-25T09:53:43Z</time>
					</trkpt>
					<trkpt lat="45.575480" lon="4.658930">
						<ele>348</ele>
						<time>2025-06-25T09:53:48Z</time>
					</trkpt>
					<trkpt lat="45.575450" lon="4.659200">
						<ele>347</ele>
						<time>2025-06-25T09:54:13Z</time>
					</trkpt>
					<trkpt lat="45.575430" lon="4.659610">
						<ele>346</ele>
						<time>2025-06-25T09:54:52Z</time>
					</trkpt>
					<trkpt lat="45.575410" lon="4.659980">
						<ele>346</ele>
						<time>2025-06-25T09:55:26Z</time>
					</trkpt>
					<trkpt lat="45.575400" lon="4.660550">
						<ele>344</ele>
						<time>2025-06-25T09:56:20Z</time>
					</trkpt>
					<trkpt lat="45.575410" lon="4.660910">
						<ele>343</ele>
						<time>2025-06-25T09:56:53Z</time>
					</trkpt>
					<trkpt lat="45.575400" lon="4.660550">
						<ele>344</ele>
						<time>2025-06-25T09:57:27Z</time>
					</trkpt>
					<trkpt lat="45.576080" lon="4.661260">
						<ele>344</ele>
						<time>2025-06-25T09:59:19Z</time>
					</trkpt>
					<trkpt lat="45.576500" lon="4.661590">
						<ele>344</ele>
						<time>2025-06-25T10:00:23Z</time>
					</trkpt>
					<trkpt lat="45.576910" lon="4.661950">
						<ele>343</ele>
						<time>2025-06-25T10:01:28Z</time>
					</trkpt>
					<trkpt lat="45.576920" lon="4.661940">
						<ele>343</ele>
						<time>2025-06-25T10:01:29Z</time>
					</trkpt>
					<trkpt lat="45.577020" lon="4.661840">
						<ele>344</ele>
						<time>2025-06-25T10:01:46Z</time>
					</trkpt>
					<trkpt lat="45.577100" lon="4.662200">
						<ele>343</ele>
						<time>2025-06-25T10:02:21Z</time>
					</trkpt>
					<trkpt lat="45.577070" lon="4.662210">
						<ele>343</ele>
						<time>2025-06-25T10:02:25Z</time>
					</trkpt>
					<trkpt lat="45.577100" lon="4.662200">
						<ele>343</ele>
						<time>2025-06-25T10:02:29Z</time>
					</trkpt>
					<trkpt lat="45.577330" lon="4.662110">
						<ele>343</ele>
						<time>2025-06-25T10:03:01Z</time>
					</trkpt>
					<trkpt lat="45.577390" lon="4.662090">
						<ele>343</ele>
						<time>2025-06-25T10:03:09Z</time>
					</trkpt>
					<trkpt lat="45.577680" lon="4.661940">
						<ele>343</ele>
						<time>2025-06-25T10:03:50Z</time>
					</trkpt>
					<trkpt lat="45.577780" lon="4.661880">
						<ele>343</ele>
						<time>2025-06-25T10:04:05Z</time>
					</trkpt>
					<trkpt lat="45.578060" lon="4.661910">
						<ele>343</ele>
						<time>2025-06-25T10:04:42Z</time>
					</trkpt>
					<trkpt lat="45.578050" lon="4.661940">
						<ele>343</ele>
						<time>2025-06-25T10:04:45Z</time>
					</trkpt>
					<trkpt lat="45.578150" lon="4.661950">
						<ele>342</ele>
						<time>2025-06-25T10:04:59Z</time>
					</trkpt>
					<trkpt lat="45.578150" lon="4.661980">
						<ele>342</ele>
						<time>2025-06-25T10:05:01Z</time>
					</trkpt>
					<trkpt lat="45.578200" lon="4.661980">
						<ele>342</ele>
						<time>2025-06-25T10:05:08Z</time>
					</trkpt>
					<trkpt lat="45.578240" lon="4.662140">
						<ele>341</ele>
						<time>2025-06-25T10:05:24Z</time>
					</trkpt>
					<trkpt lat="45.578340" lon="4.662420">
						<ele>340</ele>
						<time>2025-06-25T10:05:53Z</time>
					</trkpt>
					<trkpt lat="45.578430" lon="4.662720">
						<ele>339</ele>
						<time>2025-06-25T10:06:24Z</time>
					</trkpt>
					</trkseg>
				</trk>
			</gpx>